createdAt,value
2023-11-30T00:02:08.837Z,55.40
2023-11-30T00:04:36.592Z,55.40
2023-11-30T00:07:04.482Z,55.50
2023-11-30T00:09:32.206Z,55.50
2023-11-30T00:12:01.468Z,55.40
2023-11-30T00:14:29.357Z,55.40
2023-11-30T00:16:57.127Z,55.50
2023-11-30T00:19:24.955Z,55.60
2023-11-30T00:21:52.874Z,55.40
2023-11-30T00:24:20.631Z,55.40
2023-11-30T00:26:48.416Z,55.40
2023-11-30T00:29:17.920Z,55.40
2023-11-30T00:31:46.107Z,55.40
2023-11-30T00:34:13.840Z,55.40
2023-11-30T00:36:41.560Z,55.30
2023-11-30T00:39:10.033Z,55.40
2023-11-30T00:41:37.867Z,55.40
2023-11-30T00:44:05.863Z,55.30
2023-11-30T00:46:35.344Z,55.30
2023-11-30T00:49:03.850Z,55.30
2023-11-30T00:51:31.631Z,55.30
2023-11-30T00:53:59.421Z,55.30
2023-11-30T00:56:27.900Z,55.30
2023-11-30T00:58:55.721Z,55.30
2023-11-30T01:01:23.855Z,55.40
2023-11-30T01:03:53.016Z,55.40
2023-11-30T01:06:21.243Z,55.30
2023-11-30T01:08:49.009Z,55.00
2023-11-30T01:11:16.981Z,55.20
2023-11-30T01:13:46.066Z,55.20
2023-11-30T01:16:13.875Z,55.30
2023-11-30T01:18:41.720Z,55.20
2023-11-30T01:21:11.429Z,55.20
2023-11-30T01:23:39.184Z,55.20
2023-11-30T01:26:07.468Z,55.20
2023-11-30T01:28:35.705Z,55.20
2023-11-30T01:31:03.598Z,55.20
2023-11-30T01:33:31.914Z,55.20
2023-11-30T01:35:59.940Z,55.20
2023-11-30T01:38:29.860Z,55.30
2023-11-30T01:40:57.999Z,55.20
2023-11-30T01:43:27.322Z,55.10
2023-11-30T01:46:02.915Z,55.10
2023-11-30T01:48:32.773Z,54.90
2023-11-30T01:51:00.584Z,55.10
2023-11-30T01:53:29.628Z,55.20
2023-11-30T01:55:57.890Z,55.10
2023-11-30T01:58:25.593Z,55.20
2023-11-30T02:00:53.709Z,55.20
2023-11-30T02:03:24.286Z,55.20
2023-11-30T02:05:54.153Z,55.20
2023-11-30T02:08:21.956Z,55.10
2023-11-30T02:10:51.937Z,55.00
2023-11-30T02:13:19.669Z,55.30
2023-11-30T02:15:48.002Z,55.30
2023-11-30T02:18:15.899Z,55.50
2023-11-30T02:20:44.160Z,55.40
2023-11-30T02:23:13.220Z,55.60
2023-11-30T02:25:40.958Z,55.40
2023-11-30T02:28:09.281Z,55.60
2023-11-30T02:30:39.280Z,55.60
2023-11-30T02:33:08.129Z,55.60
2023-11-30T02:35:36.642Z,55.70
2023-11-30T02:38:04.977Z,55.80
2023-11-30T02:40:34.180Z,55.80
2023-11-30T02:43:02.287Z,55.70
2023-11-30T02:45:30.087Z,55.80
2023-11-30T02:47:58.460Z,55.80
2023-11-30T02:50:26.207Z,55.80
2023-11-30T02:52:54.864Z,55.90
2023-11-30T02:55:23.454Z,55.80
2023-11-30T02:57:52.781Z,56.00
2023-11-30T03:00:21.424Z,55.90
2023-11-30T03:02:49.380Z,56.10
2023-11-30T03:05:17.287Z,56.10
2023-11-30T03:07:45.520Z,56.10
2023-11-30T03:10:13.939Z,56.20
2023-11-30T03:12:41.834Z,56.30
2023-11-30T03:15:13.931Z,56.20
2023-11-30T03:17:41.703Z,56.20
2023-11-30T03:20:10.512Z,56.20
2023-11-30T03:22:38.813Z,56.40
2023-11-30T03:25:07.459Z,56.30
2023-11-30T03:27:35.193Z,56.40
2023-11-30T03:30:03.672Z,56.40
2023-11-30T03:32:32.861Z,56.40
2023-11-30T03:35:00.657Z,56.60
2023-11-30T03:37:28.811Z,56.50
2023-11-30T03:39:57.021Z,56.70
2023-11-30T03:42:25.190Z,56.70
2023-11-30T03:44:52.969Z,56.70
2023-11-30T03:47:21.175Z,56.70
2023-11-30T03:49:50.250Z,56.80
2023-11-30T03:52:17.980Z,56.70
2023-11-30T03:54:46.078Z,56.70
2023-11-30T03:57:13.877Z,56.80
2023-11-30T03:59:41.732Z,56.70
2023-11-30T04:02:09.507Z,56.80
2023-11-30T04:04:39.191Z,56.90
2023-11-30T04:07:09.182Z,57.00
2023-11-30T04:09:38.341Z,56.90
2023-11-30T04:12:07.288Z,56.80
2023-11-30T04:14:35.003Z,57.00
2023-11-30T04:17:04.700Z,56.80
2023-11-30T04:19:32.766Z,57.00
2023-11-30T04:22:00.544Z,57.00
2023-11-30T04:24:29.799Z,57.00
2023-11-30T04:26:57.565Z,56.90
2023-11-30T04:29:25.337Z,57.20
2023-11-30T04:31:53.165Z,57.10
2023-11-30T04:34:20.908Z,57.00
2023-11-30T04:36:48.668Z,57.20
2023-11-30T04:39:16.640Z,57.20
2023-11-30T04:41:45.706Z,57.10
2023-11-30T04:44:14.060Z,57.00
2023-11-30T04:46:41.854Z,57.00
2023-11-30T04:49:10.807Z,56.90
2023-11-30T04:51:38.596Z,56.90
2023-11-30T04:54:07.203Z,56.90
2023-11-30T04:56:35.082Z,56.90
2023-11-30T04:59:04.662Z,57.00
2023-11-30T05:01:34.254Z,56.90
2023-11-30T05:04:04.604Z,57.00
2023-11-30T05:06:32.993Z,56.80
2023-11-30T05:09:00.764Z,57.00
2023-11-30T05:11:28.557Z,56.90
2023-11-30T05:13:56.346Z,56.80
2023-11-30T05:16:25.535Z,57.20
2023-11-30T05:18:53.856Z,56.90
2023-11-30T05:21:21.973Z,56.80
2023-11-30T05:23:49.890Z,56.90
2023-11-30T05:26:18.025Z,56.90
2023-11-30T05:28:46.130Z,56.70
2023-11-30T05:31:13.842Z,56.80
2023-11-30T05:33:43.364Z,56.80
2023-11-30T05:36:12.017Z,56.80
2023-11-30T05:38:40.123Z,56.70
2023-11-30T05:41:08.044Z,56.90
2023-11-30T05:43:38.186Z,56.90
2023-11-30T05:46:07.219Z,56.70
2023-11-30T05:48:35.608Z,56.70
2023-11-30T05:51:05.368Z,56.90
2023-11-30T05:53:33.451Z,56.80
2023-11-30T05:56:01.392Z,56.70
2023-11-30T05:58:29.377Z,56.80
2023-11-30T06:00:58.422Z,56.60
2023-11-30T06:03:26.793Z,56.80
2023-11-30T06:05:54.591Z,56.80
2023-11-30T06:08:26.132Z,56.70
2023-11-30T06:10:54.243Z,56.80
2023-11-30T06:13:23.816Z,56.70
2023-11-30T06:15:53.981Z,56.50
2023-11-30T06:18:22.216Z,56.70
2023-11-30T06:20:49.009Z,56.70
2023-11-30T06:23:17.302Z,56.50
2023-11-30T06:25:46.383Z,56.60
2023-11-30T06:28:14.219Z,56.60
2023-11-30T06:30:42.058Z,56.40
2023-11-30T06:33:10.786Z,56.60
2023-11-30T06:35:38.984Z,56.60
2023-11-30T06:38:06.935Z,56.60
2023-11-30T06:40:34.921Z,56.70
2023-11-30T06:43:04.232Z,56.70
2023-11-30T06:45:32.743Z,56.50
2023-11-30T06:48:00.908Z,56.60
2023-11-30T06:50:29.325Z,56.50
2023-11-30T06:52:57.183Z,56.50
2023-11-30T06:55:25.168Z,56.50
2023-11-30T06:57:53.440Z,56.50
2023-11-30T07:00:23.023Z,56.50
2023-11-30T07:02:51.208Z,56.50
2023-11-30T07:05:19.154Z,56.50
2023-11-30T07:07:47.629Z,56.40
2023-11-30T07:10:15.627Z,56.30
2023-11-30T07:12:44.208Z,56.40
2023-11-30T07:15:12.405Z,56.40
2023-11-30T07:17:42.441Z,56.40
2023-11-30T07:20:11.008Z,56.20
2023-11-30T07:22:39.219Z,56.40
2023-11-30T07:25:08.428Z,56.30
2023-11-30T07:27:36.198Z,56.00
2023-11-30T07:30:04.454Z,56.00
2023-11-30T07:32:32.229Z,56.00
2023-11-30T07:35:02.215Z,56.00
2023-11-30T07:37:29.928Z,56.00
2023-11-30T07:39:58.121Z,56.00
2023-11-30T07:42:32.561Z,56.00
2023-11-30T07:45:06.339Z,55.90
2023-11-30T07:47:34.460Z,55.80
2023-11-30T07:50:04.294Z,56.00
2023-11-30T07:52:32.867Z,55.90
2023-11-30T07:55:02.482Z,55.90
2023-11-30T07:57:31.173Z,55.90
2023-11-30T07:59:59.096Z,55.80
2023-11-30T08:02:27.148Z,55.80
2023-11-30T08:04:55.154Z,55.50
2023-11-30T08:07:24.452Z,56.00
2023-11-30T08:09:52.601Z,55.70
2023-11-30T08:12:20.516Z,55.60
2023-11-30T08:14:48.830Z,55.70
2023-11-30T08:17:16.541Z,55.50
2023-11-30T08:19:44.293Z,55.40
2023-11-30T08:22:14.173Z,55.50
2023-11-30T08:24:44.191Z,55.40
2023-11-30T08:27:12.465Z,55.40
2023-11-30T08:29:40.259Z,55.40
2023-11-30T08:32:08.284Z,55.40
2023-11-30T08:34:36.340Z,55.40
2023-11-30T08:37:05.361Z,55.40
2023-11-30T08:39:33.360Z,55.20
2023-11-30T08:42:03.442Z,55.20
2023-11-30T08:44:31.426Z,55.30
2023-11-30T08:46:59.904Z,55.30
2023-11-30T08:49:28.043Z,55.40
2023-11-30T08:51:55.937Z,55.30
2023-11-30T08:54:27.963Z,55.30
2023-11-30T08:56:55.921Z,55.40
2023-11-30T08:59:25.007Z,55.10
2023-11-30T09:01:52.844Z,55.30
2023-11-30T09:04:20.818Z,55.50
2023-11-30T09:06:48.619Z,55.40
2023-11-30T09:09:16.934Z,55.40
2023-11-30T09:11:46.206Z,55.40
2023-11-30T09:14:14.444Z,55.40
2023-11-30T09:16:43.820Z,55.50
2023-11-30T09:19:14.865Z,55.40
2023-11-30T09:21:43.291Z,55.60
2023-11-30T09:24:11.999Z,55.40
2023-11-30T09:26:42.488Z,55.40
2023-11-30T09:29:11.476Z,55.50
2023-11-30T09:31:43.554Z,55.50
2023-11-30T09:34:12.849Z,55.50
2023-11-30T09:36:40.795Z,55.60
2023-11-30T09:39:09.888Z,55.60
2023-11-30T09:41:39.304Z,55.50
2023-11-30T09:44:07.186Z,55.40
2023-11-30T09:46:35.043Z,55.40
2023-11-30T09:49:07.306Z,55.50
2023-11-30T09:51:36.445Z,55.40
2023-11-30T09:54:04.332Z,55.40
2023-11-30T09:56:32.612Z,55.60
2023-11-30T09:59:00.324Z,55.50
2023-11-30T10:01:28.603Z,55.50
2023-11-30T10:03:56.654Z,55.50
2023-11-30T10:06:26.818Z,55.50
2023-11-30T10:08:54.973Z,55.40
2023-11-30T10:11:23.514Z,55.50
2023-11-30T10:13:51.488Z,55.50
2023-11-30T10:16:19.612Z,47.90
2023-11-30T10:18:48.134Z,51.30
2023-11-30T10:21:16.172Z,53.10
2023-11-30T10:23:48.005Z,54.80
2023-11-30T10:26:15.917Z,54.40
2023-11-30T10:28:43.725Z,57.30
2023-11-30T10:31:11.931Z,57.40
2023-11-30T10:33:41.770Z,58.60
2023-11-30T10:36:10.636Z,57.80
2023-11-30T10:38:38.777Z,58.50
2023-11-30T10:41:11.740Z,59.50
2023-11-30T10:43:39.727Z,61.50
2023-11-30T10:46:09.361Z,62.90
2023-11-30T10:48:39.497Z,65.40
2023-11-30T10:51:18.488Z,63.80
2023-11-30T10:53:56.917Z,61.30
2023-11-30T10:56:28.177Z,59.10
2023-11-30T10:58:58.682Z,56.50
2023-11-30T11:01:28.190Z,56.30
2023-11-30T11:03:58.502Z,56.00
2023-11-30T11:06:27.410Z,55.10
2023-11-30T11:09:01.931Z,54.50
2023-11-30T11:11:32.038Z,54.20
2023-11-30T11:13:59.876Z,53.90
2023-11-30T11:16:37.826Z,53.10
2023-11-30T11:19:06.748Z,53.10
2023-11-30T11:21:37.615Z,52.90
2023-11-30T11:24:06.762Z,52.80
2023-11-30T11:26:45.973Z,52.90
2023-11-30T11:29:15.399Z,52.60
2023-11-30T11:31:44.369Z,51.90
2023-11-30T11:34:12.619Z,52.50
2023-11-30T11:36:41.186Z,51.80
2023-11-30T11:39:12.795Z,52.70
2023-11-30T11:41:41.344Z,52.40
2023-11-30T11:44:11.683Z,52.50
2023-11-30T11:46:40.872Z,52.20
2023-11-30T11:49:11.822Z,52.70
2023-11-30T11:51:48.444Z,52.80
2023-11-30T11:54:20.149Z,52.40
2023-11-30T11:56:50.668Z,52.10
2023-11-30T11:59:23.955Z,51.90
2023-11-30T12:01:54.629Z,52.30
2023-11-30T12:04:32.732Z,52.90
2023-11-30T12:07:42.649Z,52.50
2023-11-30T12:10:13.964Z,52.50
2023-11-30T12:16:52.913Z,52.10
2023-11-30T12:19:25.915Z,51.90
2023-11-30T12:22:12.478Z,51.60
2023-11-30T12:25:13.792Z,51.60
2023-11-30T12:28:04.705Z,52.10
2023-11-30T12:30:59.579Z,52.20
2023-11-30T12:33:38.284Z,52.00
2023-11-30T12:36:13.201Z,52.00
2023-11-30T12:38:51.725Z,51.80
2023-11-30T12:41:34.031Z,52.00
2023-11-30T12:44:06.346Z,51.90
2023-11-30T12:46:36.532Z,51.80
2023-11-30T12:49:14.135Z,52.00
2023-11-30T12:51:50.146Z,51.60
2023-11-30T12:54:25.643Z,51.20
2023-11-30T12:57:02.230Z,51.20
2023-11-30T12:59:34.937Z,52.20
2023-11-30T13:02:32.989Z,52.00
2023-11-30T13:05:10.957Z,52.20
2023-11-30T13:07:41.209Z,51.60
2023-11-30T13:10:11.681Z,52.20
2023-11-30T13:12:40.486Z,52.00
2023-11-30T13:15:12.071Z,51.80
2023-11-30T13:17:41.807Z,51.70
2023-11-30T13:20:35.253Z,51.50
2023-11-30T13:23:46.935Z,51.70
2023-11-30T13:26:29.407Z,51.50
2023-11-30T13:29:03.129Z,51.40
2023-11-30T13:31:31.695Z,50.90
2023-11-30T13:34:00.679Z,51.90
2023-11-30T13:36:30.724Z,51.80
2023-11-30T13:38:58.690Z,51.80
2023-11-30T13:41:27.029Z,51.90
2023-11-30T13:43:54.871Z,51.80
2023-11-30T13:46:23.150Z,51.60
2023-11-30T13:48:50.919Z,51.70
2023-11-30T13:51:19.293Z,51.60
2023-11-30T13:53:48.538Z,51.00
2023-11-30T13:56:20.096Z,51.00
2023-11-30T13:58:47.956Z,51.10
2023-11-30T14:01:17.420Z,52.30
2023-11-30T14:03:47.009Z,52.00
2023-11-30T14:06:19.344Z,51.60
2023-11-30T14:08:49.937Z,51.60
2023-11-30T14:11:18.895Z,51.50
2023-11-30T14:13:48.225Z,51.80
2023-11-30T14:16:16.585Z,51.60
2023-11-30T14:18:44.694Z,51.60
2023-11-30T14:21:12.937Z,51.60
2023-11-30T14:23:41.547Z,51.90
2023-11-30T14:26:12.071Z,51.10
2023-11-30T14:28:40.571Z,51.50
2023-11-30T14:31:09.699Z,51.20
2023-11-30T14:33:38.328Z,51.80
2023-11-30T14:36:07.244Z,52.20
2023-11-30T14:38:35.690Z,51.80
2023-11-30T14:41:03.404Z,51.70
2023-11-30T14:43:32.511Z,51.50
2023-11-30T14:46:00.740Z,51.50
2023-11-30T14:48:28.631Z,51.60
2023-11-30T14:50:56.937Z,51.40
2023-11-30T14:53:24.663Z,51.50
2023-11-30T14:55:52.844Z,51.40
2023-11-30T14:58:21.410Z,51.30
2023-11-30T15:00:51.939Z,51.40
2023-11-30T15:03:21.126Z,51.50
2023-11-30T15:05:50.560Z,51.60
2023-11-30T15:08:21.601Z,51.60
2023-11-30T15:10:50.097Z,51.60
2023-11-30T15:13:17.993Z,51.70
2023-11-30T15:15:46.516Z,51.40
2023-11-30T15:18:15.792Z,51.40
2023-11-30T15:20:44.395Z,51.20
2023-11-30T15:23:12.567Z,50.90
2023-11-30T15:25:40.675Z,50.90
2023-11-30T15:28:11.557Z,51.00
2023-11-30T15:30:39.701Z,51.00
2023-11-30T15:33:09.928Z,50.80
2023-11-30T15:35:41.063Z,50.80
2023-11-30T15:38:09.218Z,50.90
2023-11-30T15:40:38.400Z,50.70
2023-11-30T15:43:06.534Z,50.80
2023-11-30T15:45:35.203Z,50.80
2023-11-30T15:48:03.417Z,50.90
2023-11-30T15:50:31.404Z,50.90
2023-11-30T15:53:01.198Z,50.80
2023-11-30T15:55:29.542Z,50.40
2023-11-30T15:57:57.352Z,51.10
2023-11-30T16:00:25.144Z,51.00
2023-11-30T16:02:52.954Z,50.80
2023-11-30T16:05:20.713Z,51.40
2023-11-30T16:07:48.944Z,51.50
2023-11-30T16:10:18.263Z,51.70
2023-11-30T16:12:46.257Z,51.80
2023-11-30T16:15:14.179Z,52.10
2023-11-30T16:17:41.964Z,52.00
2023-11-30T16:20:12.249Z,52.20
2023-11-30T16:22:40.195Z,51.70
2023-11-30T16:25:09.132Z,51.60
2023-11-30T16:27:38.256Z,51.40
2023-11-30T16:30:08.468Z,51.40
2023-11-30T16:32:36.257Z,51.40
2023-11-30T16:35:07.090Z,51.10
2023-11-30T16:37:35.001Z,51.30
2023-11-30T16:40:04.620Z,51.10
2023-11-30T16:42:32.632Z,51.10
2023-11-30T16:45:02.449Z,51.10
2023-11-30T16:47:30.304Z,50.70
2023-11-30T16:49:58.176Z,50.70
2023-11-30T16:52:26.753Z,50.90
2023-11-30T16:54:55.356Z,50.80
2023-11-30T16:57:23.677Z,50.70
2023-11-30T16:59:52.283Z,50.70
2023-11-30T17:02:21.447Z,50.80
2023-11-30T17:04:49.724Z,50.70
2023-11-30T17:07:18.496Z,50.70
2023-11-30T17:09:49.528Z,50.40
2023-11-30T17:12:18.013Z,50.50
2023-11-30T17:14:46.430Z,50.60
2023-11-30T17:17:14.682Z,50.40
2023-11-30T17:19:44.232Z,50.20
2023-11-30T17:22:12.516Z,50.10
2023-11-30T17:24:42.867Z,50.50
2023-11-30T17:27:11.482Z,50.30
2023-11-30T17:29:41.059Z,50.30
2023-11-30T17:32:09.799Z,50.40
2023-11-30T17:34:38.311Z,50.30
2023-11-30T17:37:10.065Z,50.50
2023-11-30T17:39:38.335Z,50.40
2023-11-30T17:42:07.558Z,50.40
2023-11-30T17:44:35.676Z,50.40
2023-11-30T17:47:04.131Z,50.30
2023-11-30T17:49:34.298Z,50.20
2023-11-30T17:52:02.914Z,50.40
2023-11-30T17:54:32.547Z,50.20
2023-11-30T17:57:01.288Z,50.30
2023-11-30T17:59:29.771Z,50.30
2023-11-30T18:01:58.038Z,50.50
2023-11-30T18:04:26.335Z,50.30
2023-11-30T18:06:54.481Z,50.50
2023-11-30T18:09:25.811Z,50.70
2023-11-30T18:11:56.752Z,50.90
2023-11-30T18:14:32.670Z,50.60
2023-11-30T18:17:00.653Z,50.70
2023-11-30T18:19:28.970Z,51.00
2023-11-30T18:21:57.149Z,50.90
2023-11-30T18:24:31.604Z,50.40
2023-11-30T18:27:01.739Z,50.70
2023-11-30T18:29:30.014Z,50.90
2023-11-30T18:31:58.419Z,50.70
2023-11-30T18:34:26.740Z,50.80
2023-11-30T18:36:55.390Z,50.70
2023-11-30T18:39:24.616Z,50.90
2023-11-30T18:41:56.510Z,50.70
2023-11-30T18:44:26.180Z,50.70
2023-11-30T18:46:54.636Z,50.90
2023-11-30T18:49:22.837Z,50.40
2023-11-30T18:51:51.455Z,50.60
2023-11-30T18:54:21.805Z,50.40
2023-11-30T18:56:49.973Z,50.10
2023-11-30T18:59:18.431Z,49.90
2023-11-30T19:01:48.316Z,50.30
2023-11-30T19:04:16.264Z,50.10
2023-11-30T19:06:44.776Z,50.00
2023-11-30T19:09:14.397Z,50.10
2023-11-30T19:11:42.926Z,50.50
2023-11-30T19:14:11.664Z,50.50
2023-11-30T19:16:42.097Z,50.50
2023-11-30T19:19:12.069Z,50.20
2023-11-30T19:21:42.428Z,49.90
2023-11-30T19:24:11.922Z,49.80
2023-11-30T19:26:40.834Z,49.90
2023-11-30T19:29:09.467Z,49.90
2023-11-30T19:31:37.683Z,49.90
2023-11-30T19:34:06.297Z,49.90
2023-11-30T19:36:35.821Z,50.00
2023-11-30T19:39:04.411Z,50.40
2023-11-30T19:41:32.745Z,49.70
2023-11-30T19:44:00.600Z,50.40
2023-11-30T19:46:30.001Z,50.30
2023-11-30T19:48:58.229Z,50.10
2023-11-30T19:51:26.448Z,50.10
2023-11-30T19:53:55.616Z,50.30
2023-11-30T19:56:24.224Z,50.40
2023-11-30T19:58:52.336Z,49.90
2023-11-30T20:01:23.005Z,50.10
2023-11-30T20:03:51.031Z,50.00
2023-11-30T20:06:19.332Z,49.80
2023-11-30T20:08:47.261Z,50.00
2023-11-30T20:11:17.285Z,50.10
2023-11-30T20:13:45.339Z,49.80
2023-11-30T20:16:14.179Z,49.70
2023-11-30T20:18:42.809Z,49.80
2023-11-30T20:21:17.961Z,49.70
2023-11-30T20:23:46.772Z,49.70
2023-11-30T20:26:18.782Z,49.90
2023-11-30T20:28:47.485Z,49.80
2023-11-30T20:31:15.568Z,50.00
2023-11-30T20:33:43.505Z,49.60
2023-11-30T20:36:11.679Z,49.90
2023-11-30T20:38:40.794Z,50.00
2023-11-30T20:41:09.187Z,50.20
2023-11-30T20:43:38.656Z,49.50
2023-11-30T20:46:07.707Z,49.30
2023-11-30T20:48:36.691Z,49.50
2023-11-30T20:51:04.957Z,49.50
2023-11-30T20:53:33.155Z,49.50
2023-11-30T20:56:01.099Z,49.60
2023-11-30T20:58:29.105Z,49.40
2023-11-30T21:00:58.749Z,49.60
2023-11-30T21:03:27.349Z,49.60
2023-11-30T21:05:55.184Z,49.30
2023-11-30T21:08:22.980Z,49.80
2023-11-30T21:10:50.729Z,50.30
2023-11-30T21:13:20.414Z,50.30
2023-11-30T21:16:00.203Z,50.30
2023-11-30T21:18:38.022Z,50.00
2023-11-30T21:21:07.265Z,50.30
2023-11-30T21:23:35.250Z,50.10
2023-11-30T21:26:03.413Z,50.00
2023-11-30T21:28:39.095Z,50.20
2023-11-30T21:31:08.004Z,50.00
2023-11-30T21:33:37.746Z,50.20
2023-11-30T21:36:11.151Z,50.30
2023-11-30T21:38:41.345Z,50.20
2023-11-30T21:41:13.806Z,49.90
2023-11-30T21:43:41.861Z,49.50
2023-11-30T21:46:10.015Z,50.40
2023-11-30T21:48:39.636Z,50.60
2023-11-30T21:51:08.487Z,51.00
2023-11-30T21:53:43.284Z,50.90
2023-11-30T21:56:14.268Z,50.40
2023-11-30T21:58:42.371Z,50.30
2023-11-30T22:01:10.934Z,50.60
2023-11-30T22:03:40.550Z,50.10
2023-11-30T22:06:12.245Z,50.20
2023-11-30T22:08:42.971Z,50.00
2023-11-30T22:11:11.559Z,49.90
2023-11-30T22:13:40.136Z,49.90
2023-11-30T22:16:12.774Z,49.80
2023-11-30T22:18:44.923Z,49.80
2023-11-30T22:21:12.994Z,49.80
2023-11-30T22:23:40.830Z,49.80
2023-11-30T22:26:09.528Z,49.90
2023-11-30T22:28:37.314Z,51.10
2023-11-30T22:31:05.867Z,51.90
2023-11-30T22:33:34.167Z,52.70
2023-11-30T22:36:03.788Z,53.10
2023-11-30T22:38:35.535Z,52.50
2023-11-30T22:41:10.953Z,52.60
2023-11-30T22:43:39.184Z,52.40
2023-11-30T22:46:07.626Z,52.50
2023-11-30T22:48:36.293Z,52.60
2023-11-30T22:51:06.634Z,52.70
2023-11-30T22:53:34.438Z,52.50
2023-11-30T22:56:02.507Z,52.70
2023-11-30T22:58:30.485Z,52.60
2023-11-30T23:00:58.690Z,52.70
2023-11-30T23:03:26.930Z,52.60
2023-11-30T23:05:55.005Z,52.70
2023-11-30T23:08:24.341Z,52.60
2023-11-30T23:10:52.410Z,52.60
2023-11-30T23:13:21.223Z,52.80
2023-11-30T23:15:49.358Z,52.80
2023-11-30T23:18:17.830Z,52.90
2023-11-30T23:20:45.789Z,52.90
2023-11-30T23:23:13.667Z,52.90
2023-11-30T23:25:42.824Z,52.90
2023-11-30T23:28:10.767Z,53.00
2023-11-30T23:30:38.713Z,53.00
2023-11-30T23:33:07.756Z,53.10
2023-11-30T23:35:35.498Z,53.30
2023-11-30T23:38:03.490Z,53.30
2023-11-30T23:40:31.511Z,53.50
2023-11-30T23:43:01.233Z,53.50
2023-11-30T23:45:29.669Z,53.60
2023-11-30T23:47:58.132Z,53.50
2023-11-30T23:50:26.473Z,53.60
2023-11-30T23:52:54.812Z,53.60
2023-11-30T23:55:22.739Z,53.70
2023-11-30T23:57:50.784Z,53.70
